Time;durP1;ratioP1;P1;durP2;ratioP2;P2;SDS_P1;SDS_P2;PMS_P1;PMS_P2;Temp;Humidity;BMP_temperature;BMP_pressure;BME280_temperature;BME280_humidity;BME280_pressure;Samples;Min_cycle;Max_cycle;Signal;HPM_P1;HPM_P2
2022/12/23 00:00:39;;;;;;;51.58;39.40;;;;;;;;;;5072979;28;20425;-72
2022/12/23 00:03:05;;;;;;;77.53;57.47;;;;;;;;;;5071759;28;20458;-71
2022/12/23 00:05:30;;;;;;;104.55;75.55;;;;;;;;;;5071699;28;20131;-73
2022/12/23 00:07:55;;;;;;;60.55;46.38;;;;;;;;;;5071305;28;20107;-71
2022/12/23 00:10:21;;;;;;;85.07;70.28;;;;;;;;;;5058196;28;20024;-71
2022/12/23 00:15:29;;;;;;;42.38;36.08;;;;;;;;;;5066978;28;20062;-71
2022/12/23 00:17:55;;;;;;;50.38;36.00;;;;;;;;;;5063060;28;20072;-71
2022/12/23 00:20:20;;;;;;;54.17;42.15;;;;;;;;;;5061693;28;20412;-71
2022/12/23 00:23:04;;;;;;;59.33;46.15;;;;;;;;;;5066174;28;20025;-72
2022/12/23 00:25:44;;;;;;;55.42;39.47;;;;;;;;;;5066150;28;20063;-71
2022/12/23 00:28:14;;;;;;;64.50;46.42;;;;;;;;;;5067219;28;21477;-71
2022/12/23 00:30:46;;;;;;;58.20;40.85;;;;;;;;;;5058781;28;20752;-71
2022/12/23 00:33:13;;;;;;;52.63;38.80;;;;;;;;;;5069199;28;20443;-71
2022/12/23 00:35:38;;;;;;;54.78;40.25;;;;;;;;;;5068388;28;20024;-71
2022/12/23 00:38:03;;;;;;;58.22;42.33;;;;;;;;;;5065052;28;20662;-70
2022/12/23 00:43:12;;;;;;;84.57;59.60;;;;;;;;;;5062330;28;20031;-71
2022/12/23 00:45:37;;;;;;;83.10;60.35;;;;;;;;;;5070838;28;20354;-71
2022/12/23 00:50:49;;;;;;;82.80;57.63;;;;;;;;;;5067516;28;20042;-73
2022/12/23 00:53:15;;;;;;;66.55;51.28;;;;;;;;;;5058892;28;20067;-72
2022/12/23 00:55:40;;;;;;;57.25;44.38;;;;;;;;;;5068273;28;20047;-71
2022/12/23 00:58:05;;;;;;;43.58;33.70;;;;;;;;;;5060358;28;20106;-71
2022/12/23 01:05:58;;;;;;;33.70;26.45;;;;;;;;;;5069285;28;20030;-72
2022/12/23 01:08:24;;;;;;;50.78;39.20;;;;;;;;;;5067444;28;20360;-71
2022/12/23 01:10:49;;;;;;;56.03;43.55;;;;;;;;;;5064699;28;20031;-71
2022/12/23 01:13:15;;;;;;;44.75;33.90;;;;;;;;;;5055626;28;20024;-71
2022/12/23 01:15:40;;;;;;;58.35;47.13;;;;;;;;;;5067822;28;20402;-71
2022/12/23 01:18:05;;;;;;;43.88;34.35;;;;;;;;;;5067120;28;20051;-73
2022/12/23 01:20:31;;;;;;;44.35;32.55;;;;;;;;;;5069337;28;20029;-72
2022/12/23 01:22:56;;;;;;;51.30;37.85;;;;;;;;;;5066113;28;20032;-71
2022/12/23 01:25:21;;;;;;;42.47;31.58;;;;;;;;;;5063120;28;20048;-72
2022/12/23 01:27:46;;;;;;;36.63;25.95;;;;;;;;;;5059520;28;20028;-72
2022/12/23 01:30:12;;;;;;;99.30;70.53;;;;;;;;;;5069836;28;20019;-72
2022/12/23 01:32:37;;;;;;;51.17;37.45;;;;;;;;;;5066716;28;20036;-72
2022/12/23 01:35:02;;;;;;;42.22;34.15;;;;;;;;;;5059564;28;20036;-72
2022/12/23 01:37:28;;;;;;;47.47;37.65;;;;;;;;;;5067891;28;20071;-71
2022/12/23 01:39:53;;;;;;;37.67;28.27;;;;;;;;;;5068214;28;20032;-72
2022/12/23 01:45:39;;;;;;;26.50;22.02;;;;;;;;;;5066325;28;20117;-69
2022/12/23 01:48:11;;;;;;;27.10;22.40;;;;;;;;;;5031162;28;20095;-73
2022/12/23 01:50:36;;;;;;;33.20;24.23;;;;;;;;;;5034449;28;20243;-72
2022/12/23 01:53:10;;;;;;;31.25;25.15;;;;;;;;;;5030978;28;20034;-72
2022/12/23 01:55:50;;;;;;;26.35;19.40;;;;;;;;;;5018338;28;20087;-71
2022/12/23 01:58:16;;;;;;;23.38;18.42;;;;;;;;;;5021459;28;20091;-71
2022/12/23 02:03:41;;;;;;;21.50;19.30;;;;;;;;;;5034611;28;20107;-71
2022/12/23 02:11:35;;;;;;;24.30;20.95;;;;;;;;;;5024623;28;20122;-70
2022/12/23 02:16:50;;;;;;;;;;;;;;;;;;5031308;28;20109;-71
2022/12/23 02:19:35;;;;;;;34.47;25.33;;;;;;;;;;5025022;28;20386;-72
2022/12/23 02:22:12;;;;;;;40.08;30.38;;;;;;;;;;5036220;28;20041;-70
2022/12/23 02:24:37;;;;;;;55.85;40.00;;;;;;;;;;5069833;28;20039;-72
2022/12/23 02:27:14;;;;;;;47.30;35.97;;;;;;;;;;5068641;28;20024;-72
2022/12/23 02:29:58;;;;;;;32.50;24.83;;;;;;;;;;5059881;28;20024;-70
2022/12/23 02:32:38;;;;;;;28.85;23.85;;;;;;;;;;5064269;28;20055;-71
2022/12/23 02:35:10;;;;;;;51.92;39.42;;;;;;;;;;5057475;28;20024;-72
2022/12/23 02:37:39;;;;;;;41.75;34.33;;;;;;;;;;5065741;28;20603;-71
2022/12/23 02:40:13;;;;;;;27.35;24.10;;;;;;;;;;5068189;28;20009;-72
2022/12/23 02:42:38;;;;;;;29.63;22.85;;;;;;;;;;5066577;28;20043;-71
2022/12/23 02:45:10;;;;;;;36.67;25.75;;;;;;;;;;5059651;28;20024;-72
2022/12/23 02:47:55;;;;;;;36.13;26.30;;;;;;;;;;5066373;28;20036;-72
2022/12/23 02:50:25;;;;;;;34.67;26.75;;;;;;;;;;5066023;28;20016;-72
2022/12/23 02:52:51;;;;;;;25.88;21.52;;;;;;;;;;5066486;28;20082;-71
2022/12/23 02:55:19;;;;;;;22.30;19.90;;;;;;;;;;5066043;28;20024;-71
2022/12/23 02:57:47;;;;;;;25.33;21.05;;;;;;;;;;5059079;28;20135;-71
2022/12/23 03:00:14;;;;;;;31.52;24.02;;;;;;;;;;5063519;28;20428;-71
2022/12/23 03:02:40;;;;;;;27.48;22.80;;;;;;;;;;5053806;28;20036;-71
2022/12/23 03:05:05;;;;;;;25.17;20.30;;;;;;;;;;5062039;28;20099;-71
2022/12/23 03:07:40;;;;;;;19.80;14.48;;;;;;;;;;5063182;28;20496;-71
2022/12/23 03:10:26;;;;;;;15.95;14.20;;;;;;;;;;5063564;28;20037;-71
2022/12/23 03:13:12;;;;;;;22.25;16.20;;;;;;;;;;5061314;28;20021;-71
2022/12/23 03:15:55;;;;;;;18.73;14.75;;;;;;;;;;5051206;28;20037;-71
2022/12/23 03:18:32;;;;;;;15.82;13.45;;;;;;;;;;5057045;28;20497;-71
2022/12/23 03:21:07;;;;;;;17.70;14.15;;;;;;;;;;5055985;28;20032;-71
2022/12/23 03:23:52;;;;;;;20.65;15.88;;;;;;;;;;5062097;28;20031;-73
2022/12/23 03:26:25;;;;;;;19.77;15.77;;;;;;;;;;5064639;28;20047;-71
2022/12/23 03:29:03;;;;;;;21.75;17.55;;;;;;;;;;5065357;28;20107;-72
2022/12/23 03:31:30;;;;;;;20.90;17.23;;;;;;;;;;5063106;28;20089;-72
2022/12/23 03:34:04;;;;;;;32.88;25.88;;;;;;;;;;5065758;28;20324;-71
2022/12/23 03:36:35;;;;;;;23.02;16.88;;;;;;;;;;5065664;28;20039;-71
2022/12/23 03:39:02;;;;;;;18.23;14.48;;;;;;;;;;5060278;28;20868;-71
2022/12/23 03:41:33;;;;;;;14.73;12.02;;;;;;;;;;5060513;28;20082;-71
2022/12/23 03:44:01;;;;;;;20.55;13.68;;;;;;;;;;5063815;28;20032;-71
2022/12/23 03:46:31;;;;;;;16.50;12.55;;;;;;;;;;5060972;28;20111;-72
2022/12/23 03:49:01;;;;;;;15.73;12.52;;;;;;;;;;5067893;28;20027;-71
2022/12/23 03:51:26;;;;;;;;;;;;;;;;;;5062063;28;20044;-71
2022/12/23 03:54:00;;;;;;;15.50;12.53;;;;;;;;;;5060722;28;19916;-72
2022/12/23 03:56:29;;;;;;;18.75;12.98;;;;;;;;;;5067188;28;20364;-71
2022/12/23 03:58:55;;;;;;;;;;;;;;;;;;5056432;28;20117;-71
2022/12/23 04:01:30;;;;;;;20.90;16.35;;;;;;;;;;5054914;28;20246;-71
2022/12/23 04:04:00;;;;;;;25.50;18.27;;;;;;;;;;5058069;28;20473;-71
2022/12/23 04:06:27;;;;;;;28.67;23.80;;;;;;;;;;5054499;28;20031;-71
2022/12/23 04:08:52;;;;;;;30.83;27.23;;;;;;;;;;5060201;28;20028;-72
2022/12/23 04:11:18;;;;;;;23.90;19.67;;;;;;;;;;5060877;28;20392;-72
2022/12/23 04:13:45;;;;;;;23.13;16.73;;;;;;;;;;5065230;28;20020;-72
2022/12/23 04:16:11;;;;;;;20.70;16.92;;;;;;;;;;5057591;28;20451;-71
2022/12/23 04:18:36;;;;;;;24.23;17.75;;;;;;;;;;5069416;28;20074;-71
2022/12/23 04:21:01;;;;;;;50.67;39.95;;;;;;;;;;5065921;28;20029;-72
2022/12/23 04:23:27;;;;;;;53.42;39.90;;;;;;;;;;5064082;28;20094;-72
2022/12/23 04:25:52;;;;;;;48.58;35.83;;;;;;;;;;5065107;28;20040;-71
2022/12/23 04:28:17;;;;;;;29.98;22.33;;;;;;;;;;5067748;28;20120;-71
2022/12/23 04:30:43;;;;;;;33.85;19.98;;;;;;;;;;5068628;28;21014;-71
2022/12/23 04:33:10;;;;;;;21.45;16.55;;;;;;;;;;5066243;28;20037;-72
2022/12/23 04:35:35;;;;;;;23.83;17.33;;;;;;;;;;5060749;28;20044;-71
2022/12/23 04:38:00;;;;;;;33.10;24.23;;;;;;;;;;5064212;28;20440;-71
2022/12/23 04:40:26;;;;;;;38.28;25.55;;;;;;;;;;5065655;28;20032;-71
2022/12/23 04:42:51;;;;;;;42.53;28.27;;;;;;;;;;5066695;28;20359;-71
2022/12/23 04:45:16;;;;;;;60.75;42.78;;;;;;;;;;5068288;28;20519;-72
2022/12/23 04:47:41;;;;;;;79.63;56.60;;;;;;;;;;5063498;28;20112;-71
2022/12/23 04:50:07;;;;;;;76.95;54.05;;;;;;;;;;5062440;28;20092;-72
2022/12/23 04:52:32;;;;;;;46.42;34.20;;;;;;;;;;5060452;28;20043;-71
2022/12/23 04:54:58;;;;;;;55.92;41.42;;;;;;;;;;5065927;28;20066;-72
2022/12/23 04:57:23;;;;;;;32.50;20.60;;;;;;;;;;5066634;28;20464;-71
2022/12/23 04:59:48;;;;;;;21.40;17.55;;;;;;;;;;5067205;28;20370;-71
2022/12/23 05:02:14;;;;;;;36.22;27.52;;;;;;;;;;5063980;28;20103;-72
2022/12/23 05:04:39;;;;;;;37.97;27.75;;;;;;;;;;5067437;28;20093;-72
2022/12/23 05:07:04;;;;;;;34.13;25.77;;;;;;;;;;5063167;28;20446;-71
2022/12/23 05:09:30;;;;;;;32.25;24.35;;;;;;;;;;5057984;28;20127;-71
2022/12/23 05:11:55;;;;;;;51.22;38.38;;;;;;;;;;5065880;28;20028;-72
2022/12/23 05:14:20;;;;;;;53.17;39.15;;;;;;;;;;5061139;28;20052;-72
2022/12/23 05:16:45;;;;;;;119.57;89.57;;;;;;;;;;5055730;28;20122;-72
2022/12/23 05:19:11;;;;;;;113.35;81.78;;;;;;;;;;5061809;28;20025;-71
2022/12/23 05:21:36;;;;;;;68.40;54.78;;;;;;;;;;5054740;28;20891;-72
2022/12/23 05:24:02;;;;;;;80.38;60.20;;;;;;;;;;5058923;28;20084;-71
2022/12/23 05:26:27;;;;;;;93.75;68.57;;;;;;;;;;5056179;28;20359;-71
2022/12/23 05:28:53;;;;;;;94.45;72.25;;;;;;;;;;5063374;28;20447;-71
2022/12/23 05:31:18;;;;;;;62.63;45.00;;;;;;;;;;5060075;28;20103;-71
2022/12/23 05:33:43;;;;;;;47.38;35.20;;;;;;;;;;5066549;28;20455;-71
2022/12/23 05:36:09;;;;;;;37.20;28.98;;;;;;;;;;5063891;28;20517;-71
2022/12/23 05:38:35;;;;;;;37.75;28.15;;;;;;;;;;5065129;28;20613;-71
2022/12/23 05:41:00;;;;;;;39.25;29.23;;;;;;;;;;5065191;28;20093;-72
2022/12/23 05:43:26;;;;;;;38.05;28.02;;;;;;;;;;5064203;28;20078;-71
2022/12/23 05:45:51;;;;;;;64.45;47.63;;;;;;;;;;5058381;28;20025;-70
2022/12/23 05:48:16;;;;;;;87.05;66.82;;;;;;;;;;5062246;28;20099;-71
2022/12/23 05:50:42;;;;;;;104.28;78.57;;;;;;;;;;5056825;28;20104;-71
2022/12/23 05:53:07;;;;;;;103.10;76.30;;;;;;;;;;5065715;28;20320;-70
2022/12/23 05:55:33;;;;;;;70.38;56.03;;;;;;;;;;5066783;28;20370;-72
2022/12/23 05:57:58;;;;;;;119.03;90.07;;;;;;;;;;5064835;28;20970;-72
2022/12/23 06:00:23;;;;;;;154.98;122.40;;;;;;;;;;5065458;28;20066;-72
2022/12/23 06:02:49;;;;;;;538.60;432.00;;;;;;;;;;5059695;28;20016;-73
2022/12/23 06:05:14;;;;;;;353.33;263.63;;;;;;;;;;5060325;28;20303;-72
2022/12/23 06:07:40;;;;;;;272.63;208.70;;;;;;;;;;5063001;28;20020;-72
2022/12/23 06:10:06;;;;;;;348.35;253.45;;;;;;;;;;5054304;28;20040;-72
2022/12/23 06:12:31;;;;;;;281.65;211.52;;;;;;;;;;5053768;28;20032;-71
2022/12/23 06:14:56;;;;;;;356.58;255.32;;;;;;;;;;5054090;28;20099;-71
2022/12/23 06:17:22;;;;;;;391.85;266.85;;;;;;;;;;5062247;28;20024;-71
2022/12/23 06:19:47;;;;;;;416.00;289.90;;;;;;;;;;5056354;28;20103;-74
2022/12/23 06:22:13;;;;;;;241.50;168.18;;;;;;;;;;5064905;28;20085;-72
2022/12/23 06:24:38;;;;;;;482.67;376.48;;;;;;;;;;5058126;28;20031;-71
2022/12/23 06:27:04;;;;;;;408.15;300.27;;;;;;;;;;5065202;28;20056;-72
2022/12/23 06:29:29;;;;;;;427.15;321.85;;;;;;;;;;5065839;28;20515;-71
2022/12/23 06:31:54;;;;;;;369.15;255.60;;;;;;;;;;5062591;28;20030;-71
2022/12/23 06:34:19;;;;;;;227.25;157.77;;;;;;;;;;5064240;28;20044;-72
2022/12/23 06:36:45;;;;;;;303.75;223.15;;;;;;;;;;5063797;28;20103;-72
2022/12/23 06:39:10;;;;;;;167.73;134.65;;;;;;;;;;5066476;28;20031;-71
2022/12/23 06:41:35;;;;;;;98.68;84.80;;;;;;;;;;5063064;28;20347;-72
2022/12/23 06:44:01;;;;;;;98.45;76.22;;;;;;;;;;5062821;28;20032;-71
2022/12/23 06:46:26;;;;;;;105.25;80.45;;;;;;;;;;5064552;28;20056;-72
2022/12/23 06:48:51;;;;;;;77.18;58.42;;;;;;;;;;5063149;28;20028;-73
2022/12/23 06:51:16;;;;;;;101.43;75.07;;;;;;;;;;5055948;28;20414;-72
2022/12/23 06:53:42;;;;;;;110.47;85.10;;;;;;;;;;5053773;28;20028;-72
2022/12/23 06:56:07;;;;;;;145.27;108.82;;;;;;;;;;5054587;28;20047;-72
2022/12/23 06:58:32;;;;;;;107.78;76.88;;;;;;;;;;5057219;28;20412;-72
2022/12/23 07:00:58;;;;;;;379.02;269.67;;;;;;;;;;5051243;28;20017;-73
2022/12/23 07:03:23;;;;;;;159.90;111.35;;;;;;;;;;5052977;28;20033;-72
2022/12/23 07:05:51;;;;;;;108.63;77.82;;;;;;;;;;5051704;28;20099;-73
2022/12/23 07:08:17;;;;;;;118.45;86.05;;;;;;;;;;5054671;28;20090;-72
2022/12/23 07:10:43;;;;;;;102.10;80.68;;;;;;;;;;5051497;28;20031;-73
2022/12/23 07:13:08;;;;;;;80.10;65.45;;;;;;;;;;5051389;28;20025;-73
2022/12/23 07:15:34;;;;;;;79.20;58.85;;;;;;;;;;5052128;28;20035;-73
2022/12/23 07:17:59;;;;;;;74.75;53.65;;;;;;;;;;5054224;28;20024;-73
2022/12/23 07:20:25;;;;;;;513.17;308.77;;;;;;;;;;5052107;28;20048;-72
2022/12/23 07:22:52;;;;;;;377.58;214.52;;;;;;;;;;5053352;28;20024;-72
2022/12/23 07:25:18;;;;;;;90.07;55.25;;;;;;;;;;5062863;28;20032;-72
2022/12/23 07:27:43;;;;;;;155.48;97.20;;;;;;;;;;5064420;28;20040;-72
2022/12/23 07:30:08;;;;;;;98.45;69.35;;;;;;;;;;5062240;28;20024;-71
2022/12/23 07:32:34;;;;;;;169.82;116.88;;;;;;;;;;5062326;28;20481;-72
2022/12/23 07:34:59;;;;;;;325.15;230.70;;;;;;;;;;5061854;28;20052;-72
2022/12/23 07:37:24;;;;;;;291.83;207.02;;;;;;;;;;5064702;28;20020;-72
2022/12/23 07:39:50;;;;;;;127.50;89.80;;;;;;;;;;5065941;28;20120;-72
2022/12/23 07:42:15;;;;;;;38.58;31.35;;;;;;;;;;5067021;28;20371;-72
2022/12/23 07:44:40;;;;;;;56.33;44.90;;;;;;;;;;5068344;28;20035;-72
2022/12/23 07:47:06;;;;;;;78.88;58.00;;;;;;;;;;5069078;28;20103;-71
2022/12/23 07:49:31;;;;;;;80.88;61.88;;;;;;;;;;5065538;28;20032;-72
2022/12/23 07:51:56;;;;;;;77.35;59.63;;;;;;;;;;5067117;28;20078;-72
2022/12/23 07:54:22;;;;;;;73.97;57.95;;;;;;;;;;5066544;28;20032;-71
2022/12/23 07:56:47;;;;;;;52.20;39.22;;;;;;;;;;5068745;28;20459;-72
2022/12/23 07:59:12;;;;;;;39.53;32.15;;;;;;;;;;5067540;28;20032;-72
2022/12/23 08:01:37;;;;;;;42.92;31.10;;;;;;;;;;5067093;28;20035;-72
2022/12/23 08:04:03;;;;;;;43.05;33.33;;;;;;;;;;5066298;28;20111;-72
2022/12/23 08:06:28;;;;;;;50.10;35.72;;;;;;;;;;5067853;28;20024;-72
2022/12/23 08:08:53;;;;;;;38.05;27.85;;;;;;;;;;5065758;28;20035;-72
2022/12/23 08:11:19;;;;;;;34.40;26.10;;;;;;;;;;5066406;28;20020;-71
2022/12/23 08:13:44;;;;;;;31.23;24.42;;;;;;;;;;5067943;28;20443;-71
2022/12/23 08:16:10;;;;;;;47.85;38.92;;;;;;;;;;5068570;28;20454;-72
2022/12/23 08:18:36;;;;;;;41.17;34.60;;;;;;;;;;5066466;28;20028;-72
2022/12/23 08:21:06;;;;;;;33.42;26.50;;;;;;;;;;5068476;28;20032;-71
2022/12/23 08:23:32;;;;;;;49.53;44.15;;;;;;;;;;5065246;28;20035;-72
2022/12/23 08:26:04;;;;;;;44.33;32.40;;;;;;;;;;5066779;28;20036;-72
2022/12/23 08:28:30;;;;;;;30.70;22.98;;;;;;;;;;5067929;28;20119;-72
2022/12/23 08:31:01;;;;;;;29.75;26.55;;;;;;;;;;5067685;28;20569;-71
2022/12/23 08:33:27;;;;;;;28.45;23.10;;;;;;;;;;5066244;28;20024;-72
2022/12/23 08:35:53;;;;;;;31.15;24.98;;;;;;;;;;5066812;28;20078;-72
2022/12/23 08:38:18;;;;;;;53.70;42.47;;;;;;;;;;5068267;28;20028;-72
2022/12/23 08:40:44;;;;;;;78.47;65.35;;;;;;;;;;5066386;28;20032;-72
2022/12/23 08:43:09;;;;;;;86.40;72.85;;;;;;;;;;5065185;28;20028;-71
2022/12/23 08:45:35;;;;;;;83.05;62.58;;;;;;;;;;5067108;28;20019;-71
2022/12/23 08:48:00;;;;;;;72.65;54.20;;;;;;;;;;5064214;28;20047;-72
2022/12/23 08:50:25;;;;;;;59.85;47.13;;;;;;;;;;5057800;28;20028;-71
2022/12/23 08:52:51;;;;;;;32.78;25.67;;;;;;;;;;5056658;28;20431;-72
2022/12/23 08:55:16;;;;;;;25.52;18.95;;;;;;;;;;5059789;28;20029;-72
2022/12/23 08:57:41;;;;;;;21.98;18.75;;;;;;;;;;5056493;28;20079;-71
2022/12/23 09:00:07;;;;;;;24.17;19.27;;;;;;;;;;5059192;28;20024;-72
2022/12/23 09:02:32;;;;;;;46.53;37.63;;;;;;;;;;5051460;28;20182;-71
2022/12/23 09:04:58;;;;;;;34.20;27.15;;;;;;;;;;5055891;28;20466;-72
2022/12/23 09:07:23;;;;;;;23.10;19.92;;;;;;;;;;5057480;28;20024;-72
2022/12/23 09:09:48;;;;;;;22.52;18.38;;;;;;;;;;5050212;28;20032;-71
2022/12/23 09:12:14;;;;;;;29.35;24.42;;;;;;;;;;5057043;28;20458;-71
2022/12/23 09:14:39;;;;;;;31.10;23.48;;;;;;;;;;5053501;28;20470;-71
2022/12/23 09:17:05;;;;;;;20.58;16.65;;;;;;;;;;5054172;28;20498;-72
2022/12/23 09:19:30;;;;;;;23.77;19.35;;;;;;;;;;5054354;28;20047;-72
2022/12/23 09:21:55;;;;;;;22.05;18.10;;;;;;;;;;5056539;28;20029;-72
2022/12/23 09:24:21;;;;;;;22.42;20.05;;;;;;;;;;5055595;28;20126;-71
2022/12/23 09:26:46;;;;;;;21.17;16.58;;;;;;;;;;5058977;28;20040;-71
2022/12/23 09:29:11;;;;;;;19.00;13.93;;;;;;;;;;5060531;28;20040;-72
2022/12/23 09:31:37;;;;;;;12.25;10.07;;;;;;;;;;5062764;28;20032;-71
2022/12/23 09:34:02;;;;;;;17.63;13.68;;;;;;;;;;5067513;28;20131;-70
2022/12/23 09:36:28;;;;;;;24.23;18.65;;;;;;;;;;5067187;28;20335;-71
2022/12/23 09:38:54;;;;;;;27.50;20.33;;;;;;;;;;5060810;28;20159;-71
2022/12/23 09:41:27;;;;;;;22.90;19.33;;;;;;;;;;5054036;28;20769;-71
2022/12/23 09:43:53;;;;;;;19.23;14.98;;;;;;;;;;5053623;28;20031;-71
2022/12/23 09:46:20;;;;;;;18.73;15.45;;;;;;;;;;5058415;28;20032;-71
2022/12/23 09:48:57;;;;;;;19.55;14.57;;;;;;;;;;5052734;28;20103;-71
2022/12/23 09:51:23;;;;;;;19.42;16.02;;;;;;;;;;5057191;28;20023;-71
2022/12/23 09:53:55;;;;;;;18.83;14.80;;;;;;;;;;5065727;28;20039;-70
2022/12/23 09:56:47;;;;;;;18.25;16.25;;;;;;;;;;5060216;28;20029;-71
2022/12/23 09:59:38;;;;;;;21.67;19.50;;;;;;;;;;5060757;28;20109;-71
2022/12/23 10:02:14;;;;;;;19.58;16.20;;;;;;;;;;5032872;28;20516;-75
2022/12/23 10:04:40;;;;;;;17.08;14.35;;;;;;;;;;5028383;28;21317;-71
2022/12/23 10:07:05;;;;;;;19.33;14.68;;;;;;;;;;5028187;28;20036;-70
2022/12/23 10:09:31;;;;;;;22.90;16.98;;;;;;;;;;5026103;28;20045;-71
2022/12/23 10:11:58;;;;;;;21.55;14.70;;;;;;;;;;5022723;28;20029;-70
2022/12/23 10:14:30;;;;;;;18.70;15.13;;;;;;;;;;5029167;28;20021;-71
2022/12/23 10:17:01;;;;;;;42.97;31.67;;;;;;;;;;5016552;28;20100;-70
2022/12/23 10:19:33;;;;;;;43.80;32.72;;;;;;;;;;5018822;28;20048;-70
2022/12/23 10:22:01;;;;;;;39.38;31.83;;;;;;;;;;5018501;28;20071;-71
2022/12/23 10:24:32;;;;;;;21.63;17.85;;;;;;;;;;5019631;28;20033;-71
2022/12/23 10:27:03;;;;;;;16.42;14.23;;;;;;;;;;5019700;28;20033;-71
2022/12/23 10:29:32;;;;;;;27.00;23.60;;;;;;;;;;5018838;28;20523;-71
2022/12/23 10:32:17;;;;;;;20.63;17.75;;;;;;;;;;4997471;28;20399;-70
2022/12/23 10:34:42;;;;;;;29.58;23.05;;;;;;;;;;4982461;28;20047;-70
2022/12/23 10:37:17;;;;;;;30.08;19.90;;;;;;;;;;5016019;28;20432;-69
2022/12/23 10:39:48;;;;;;;29.63;26.38;;;;;;;;;;5058297;28;20048;-70
2022/12/23 10:42:20;;;;;;;26.25;22.27;;;;;;;;;;5064715;28;20471;-71
2022/12/23 10:44:48;;;;;;;20.23;17.15;;;;;;;;;;5062549;28;20067;-71
2022/12/23 10:47:22;;;;;;;45.65;33.55;;;;;;;;;;5063109;28;20328;-71
2022/12/23 10:49:57;;;;;;;56.30;41.30;;;;;;;;;;5065976;28;20040;-73
2022/12/23 10:52:31;;;;;;;47.63;32.90;;;;;;;;;;5057393;28;20097;-71
2022/12/23 10:54:56;;;;;;;36.85;25.63;;;;;;;;;;5056042;28;20289;-71
2022/12/23 10:57:22;;;;;;;46.28;35.88;;;;;;;;;;5056400;28;20487;-71
2022/12/23 10:59:47;;;;;;;45.33;32.10;;;;;;;;;;5055758;28;20056;-71
2022/12/23 11:02:13;;;;;;;52.03;42.47;;;;;;;;;;5055675;28;20055;-71
2022/12/23 11:04:39;;;;;;;98.57;75.93;;;;;;;;;;5053445;28;20151;-70
2022/12/23 11:07:06;;;;;;;47.17;35.80;;;;;;;;;;5058586;28;20020;-72
2022/12/23 11:09:51;;;;;;;83.10;61.63;;;;;;;;;;5066811;28;21388;-75
2022/12/23 11:12:21;;;;;;;56.28;44.83;;;;;;;;;;5066873;28;20028;-74
2022/12/23 11:14:50;;;;;;;34.35;26.30;;;;;;;;;;5067244;28;20123;-72
2022/12/23 11:17:20;;;;;;;37.17;28.55;;;;;;;;;;5069289;28;20024;-73
2022/12/23 11:19:46;;;;;;;53.92;44.72;;;;;;;;;;5070136;28;20060;-74
2022/12/23 11:22:24;;;;;;;13.98;11.75;;;;;;;;;;5070602;28;20479;-73
2022/12/23 11:24:50;;;;;;;11.40;10.20;;;;;;;;;;5068817;28;20078;-75
2022/12/23 11:27:15;;;;;;;38.72;26.55;;;;;;;;;;5070284;28;20024;-74
2022/12/23 11:29:46;;;;;;;35.33;20.02;;;;;;;;;;5065433;28;20043;-75
2022/12/23 11:32:22;;;;;;;68.88;50.22;;;;;;;;;;5065454;28;20024;-74
2022/12/23 11:34:48;;;;;;;229.60;175.05;;;;;;;;;;5070274;28;20024;-72
2022/12/23 11:37:23;;;;;;;137.32;98.30;;;;;;;;;;5071973;28;20086;-72
2022/12/23 11:39:48;;;;;;;45.42;38.55;;;;;;;;;;5071940;28;20044;-75
2022/12/23 11:42:16;;;;;;;22.90;20.45;;;;;;;;;;5073974;28;20887;-74
2022/12/23 11:44:43;;;;;;;43.22;38.67;;;;;;;;;;5070013;28;20024;-76
2022/12/23 11:47:17;;;;;;;49.75;34.92;;;;;;;;;;5061676;28;20022;-72
2022/12/23 11:49:50;;;;;;;111.15;100.32;;;;;;;;;;5065368;28;20063;-73
2022/12/23 11:52:19;;;;;;;41.40;37.20;;;;;;;;;;5066901;28;20081;-75
2022/12/23 11:54:49;;;;;;;22.50;20.25;;;;;;;;;;5063762;28;20087;-76
2022/12/23 11:57:15;;;;;;;35.50;31.75;;;;;;;;;;5058206;28;20048;-75
2022/12/23 11:59:42;;;;;;;27.75;24.00;;;;;;;;;;5060856;28;20036;-73
2022/12/23 12:02:19;;;;;;;57.08;50.72;;;;;;;;;;5058851;28;20028;-74
2022/12/23 12:04:49;;;;;;;76.18;68.07;;;;;;;;;;5059161;28;20028;-74
2022/12/23 12:07:17;;;;;;;76.88;63.92;;;;;;;;;;5068419;28;20459;-74
2022/12/23 12:09:44;;;;;;;64.50;57.67;;;;;;;;;;5068864;28;20109;-74
2022/12/23 12:12:15;;;;;;;130.73;113.13;;;;;;;;;;5066254;28;20025;-73
2022/12/23 12:14:45;;;;;;;80.43;71.68;;;;;;;;;;5069172;28;20020;-74
2022/12/23 12:17:11;;;;;;;48.28;38.35;;;;;;;;;;5068043;28;20074;-74
2022/12/23 12:19:42;;;;;;;38.67;30.48;;;;;;;;;;5066771;28;20040;-73
2022/12/23 12:22:22;;;;;;;19.45;17.35;;;;;;;;;;5065187;28;20028;-75
2022/12/23 12:24:50;;;;;;;23.05;19.55;;;;;;;;;;5069002;28;20424;-74
2022/12/23 12:27:16;;;;;;;18.38;15.32;;;;;;;;;;5066780;28;20016;-73
2022/12/23 12:29:51;;;;;;;16.10;14.25;;;;;;;;;;5069649;28;20020;-73
2022/12/23 12:32:16;;;;;;;41.95;27.58;;;;;;;;;;5070593;28;20106;-75
2022/12/23 12:34:44;;;;;;;29.00;23.42;;;;;;;;;;5069481;28;20459;-73
2022/12/23 12:37:21;;;;;;;20.17;14.70;;;;;;;;;;5068135;28;20085;-73
2022/12/23 12:40:00;;;;;;;23.30;16.38;;;;;;;;;;5068558;28;20036;-73
2022/12/23 12:42:25;;;;;;;23.13;15.88;;;;;;;;;;5066076;28;20030;-74
2022/12/23 12:45:13;;;;;;;27.05;18.88;;;;;;;;;;5066632;28;20025;-73
2022/12/23 12:47:50;;;;;;;40.25;26.63;;;;;;;;;;5071172;28;20016;-75
2022/12/23 12:50:22;;;;;;;51.78;37.38;;;;;;;;;;5065370;28;20029;-76
2022/12/23 12:52:50;;;;;;;41.22;32.85;;;;;;;;;;5066279;28;20017;-73
2022/12/23 12:55:26;;;;;;;45.65;32.17;;;;;;;;;;5070724;28;20025;-74
2022/12/23 12:57:51;;;;;;;13.13;9.82;;;;;;;;;;5067933;28;20048;-73
2022/12/23 13:00:21;;;;;;;20.63;17.00;;;;;;;;;;5063707;28;20039;-74
2022/12/23 13:03:05;;;;;;;23.27;20.20;;;;;;;;;;5065979;28;20028;-73
2022/12/23 13:05:37;;;;;;;29.30;23.73;;;;;;;;;;5062464;28;20032;-75
2022/12/23 13:08:23;;;;;;;18.80;16.15;;;;;;;;;;5057124;28;20032;-73
2022/12/23 13:10:54;;;;;;;14.05;12.65;;;;;;;;;;5061611;28;20398;-73
2022/12/23 13:13:23;;;;;;;9.85;8.85;;;;;;;;;;5062874;28;20059;-74
2022/12/23 13:15:51;;;;;;;23.70;21.52;;;;;;;;;;5060156;28;20040;-75
2022/12/23 13:18:39;;;;;;;25.02;22.30;;;;;;;;;;5061499;28;20024;-74
2022/12/23 13:21:08;;;;;;;28.50;25.63;;;;;;;;;;5066028;28;20501;-75
2022/12/23 13:23:52;;;;;;;29.13;26.30;;;;;;;;;;5066717;28;20020;-74
2022/12/23 13:26:37;;;;;;;77.25;68.97;;;;;;;;;;5068268;28;20041;-74
2022/12/23 13:29:21;;;;;;;47.78;40.80;;;;;;;;;;5060664;28;20020;-73
2022/12/23 13:31:55;;;;;;;16.40;12.85;;;;;;;;;;5061078;28;20024;-73
2022/12/23 13:34:41;;;;;;;18.23;14.18;;;;;;;;;;5060639;28;20046;-74
2022/12/23 13:37:21;;;;;;;70.93;54.67;;;;;;;;;;5054512;28;20539;-73
2022/12/23 13:39:54;;;;;;;221.45;173.32;;;;;;;;;;5066048;28;20109;-74
2022/12/23 13:42:24;;;;;;;116.63;90.43;;;;;;;;;;5066061;28;20036;-73
2022/12/23 13:44:49;;;;;;;23.42;19.70;;;;;;;;;;5056781;28;20038;-72
2022/12/23 13:47:23;;;;;;;75.47;55.38;;;;;;;;;;5060461;28;20028;-73
2022/12/23 13:49:48;;;;;;;72.88;59.25;;;;;;;;;;5061648;28;20028;-75
2022/12/23 13:52:22;;;;;;;84.45;65.40;;;;;;;;;;5055001;28;20036;-75
2022/12/23 13:54:50;;;;;;;47.85;36.90;;;;;;;;;;5056948;28;20020;-74
2022/12/23 13:57:18;;;;;;;33.58;28.58;;;;;;;;;;5068193;28;20048;-73
2022/12/23 13:59:55;;;;;;;48.22;38.55;;;;;;;;;;5067345;28;20043;-72
2022/12/23 14:02:36;;;;;;;65.18;47.28;;;;;;;;;;5058173;28;20085;-73
2022/12/23 14:05:02;;;;;;;96.05;69.15;;;;;;;;;;5063337;28;20138;-71
2022/12/23 14:07:29;;;;;;;127.35;90.50;;;;;;;;;;5053813;28;20100;-72
2022/12/23 14:10:17;;;;;;;125.30;91.90;;;;;;;;;;5054026;28;20028;-71
2022/12/23 14:12:42;;;;;;;49.60;37.92;;;;;;;;;;5055120;28;20032;-71
2022/12/23 14:15:29;;;;;;;96.13;84.55;;;;;;;;;;5055362;28;20082;-72
2022/12/23 14:18:13;;;;;;;49.33;38.67;;;;;;;;;;5056583;28;20028;-72
2022/12/23 14:20:48;;;;;;;43.33;34.53;;;;;;;;;;5069185;28;20032;-74
2022/12/23 14:23:13;;;;;;;44.55;37.67;;;;;;;;;;5067632;28;20035;-75
2022/12/23 14:25:54;;;;;;;60.63;52.42;;;;;;;;;;5068290;28;20938;-75
2022/12/23 14:28:48;;;;;;;71.35;56.92;;;;;;;;;;5063470;28;20604;-74
2022/12/23 14:31:25;;;;;;;96.20;55.83;;;;;;;;;;5040657;28;20044;-72
2022/12/23 14:33:51;;;;;;;84.60;68.18;;;;;;;;;;5052849;28;20536;-73
2022/12/23 14:36:23;;;;;;;69.45;54.22;;;;;;;;;;5062514;28;20075;-72
2022/12/23 14:39:14;;;;;;;92.43;72.70;;;;;;;;;;5068905;28;20544;-72
2022/12/23 14:41:50;;;;;;;101.55;74.65;;;;;;;;;;5067807;28;20037;-73
2022/12/23 14:44:38;;;;;;;82.43;61.53;;;;;;;;;;5070748;28;20118;-73
2022/12/23 14:47:04;;;;;;;54.88;33.40;;;;;;;;;;5065140;28;20135;-73
2022/12/23 14:49:32;;;;;;;68.05;47.10;;;;;;;;;;5070419;28;20502;-73
2022/12/23 14:52:17;;;;;;;76.72;53.90;;;;;;;;;;5069339;28;20036;-74
2022/12/23 14:54:42;;;;;;;156.18;126.13;;;;;;;;;;5069604;28;20060;-73